Time;durP1;ratioP1;P1;durP2;ratioP2;P2;SDS_P1;SDS_P2;PMS_P1;PMS_P2;Temp;Humidity;BMP_temperature;BMP_pressure;BME280_temperature;BME280_humidity;BME280_pressure;Samples;Min_cycle;Max_cycle;Signal;HPM_P1;HPM_P2
2022/11/07 00:00:27;;;;;;;;;;;9.30;99.90;;;;;;4992817;28;20450;-73
2022/11/07 00:02:59;;;;;;;;;;;9.30;99.90;;;;;;4977282;28;19944;-74
2022/11/07 00:05:26;;;;;;;;;;;9.30;99.90;;;;;;5010628;28;19929;-73
2022/11/07 00:07:58;;;;;;;;;;;9.40;99.90;;;;;;5010780;28;19925;-74
2022/11/07 00:10:29;;;;;;;;;;;9.30;99.90;;;;;;5000592;28;20218;-73
2022/11/07 00:13:01;;;;;;;;;;;9.30;99.90;;;;;;4994042;28;20376;-74
2022/11/07 00:15:27;;;;;;;;;;;9.30;99.90;;;;;;4992195;28;19941;-74
2022/11/07 00:17:54;;;;;;;;;;;9.30;99.90;;;;;;4991357;28;20900;-74
2022/11/07 00:20:25;;;;;;;;;;;9.30;99.90;;;;;;4994364;28;20293;-74
2022/11/07 00:22:57;;;;;;;;;;;9.30;99.90;;;;;;4977219;28;19937;-74
2022/11/07 00:25:23;;;;;;;;;;;9.40;99.90;;;;;;4993109;28;19972;-74
2022/11/07 00:27:55;;;;;;;;;;;9.40;99.90;;;;;;4977663;28;19926;-74
2022/11/07 00:30:27;;;;;;;;;;;9.30;99.90;;;;;;4985439;28;19933;-74
2022/11/07 00:32:58;;;;;;;;;;;9.30;99.90;;;;;;4993927;28;19930;-74
2022/11/07 00:35:33;;;;;;;;;;;9.30;99.90;;;;;;4993571;28;19972;-74
2022/11/07 00:38:05;;;;;;;;;;;9.40;99.90;;;;;;4992169;28;19979;-72
2022/11/07 00:40:31;;;;;;;;;;;9.40;99.90;;;;;;4993682;28;20416;-75
2022/11/07 00:43:03;;;;;;;;;;;9.40;99.90;;;;;;5011062;28;19980;-74
2022/11/07 00:45:34;;;;;;;;;;;9.40;99.90;;;;;;4992472;28;20532;-74
2022/11/07 00:48:06;;;;;;;;;;;9.40;99.90;;;;;;4992997;28;19972;-74
2022/11/07 00:50:37;;;;;;;;;;;9.40;99.90;;;;;;5010709;28;20017;-76
2022/11/07 00:53:04;;;;;;;;;;;9.30;99.90;;;;;;5011321;28;19996;-74
2022/11/07 00:55:31;;;;;;;;;;;9.30;99.90;;;;;;4993196;28;19980;-76
2022/11/07 00:58:03;;;;;;;;;;;9.30;99.90;;;;;;5009550;28;20355;-73
2022/11/07 01:00:35;;;;;;;;;;;9.30;99.90;;;;;;5006666;28;19925;-74
2022/11/07 01:05:59;;;;;;;;;;;9.40;99.90;;;;;;4992583;28;20348;-72
2022/11/07 01:08:31;;;;;;;;;;;9.30;99.90;;;;;;4974306;28;19929;-74
2022/11/07 01:10:58;;;;;;;;;;;9.20;99.90;;;;;;4993209;28;19929;-73
2022/11/07 01:13:24;;;;;;;;;;;9.20;99.90;;;;;;4994789;28;20463;-75
2022/11/07 01:15:51;;;;;;;;;;;9.20;99.90;;;;;;4976337;28;19933;-73
2022/11/07 01:18:18;;;;;;;;;;;9.20;99.90;;;;;;5010090;28;20199;-74
2022/11/07 01:20:50;;;;;;;;;;;9.20;99.90;;;;;;5006633;28;19933;-74
2022/11/07 01:23:17;;;;;;;;;;;9.20;99.90;;;;;;4976642;28;20044;-73
2022/11/07 01:25:48;;;;;;;;;;;9.20;99.90;;;;;;4991943;28;19960;-73
2022/11/07 01:28:20;;;;;;;;;;;9.20;99.90;;;;;;4975031;28;19925;-74
2022/11/07 01:30:52;;;;;;;;;;;9.30;99.90;;;;;;4993272;28;19929;-73
2022/11/07 01:33:23;;;;;;;;;;;9.40;99.90;;;;;;4992794;28;19930;-74
2022/11/07 01:35:50;;;;;;;;;;;9.40;99.90;;;;;;4999311;28;19979;-74
2022/11/07 01:38:21;;;;;;;;;;;9.50;99.90;;;;;;4992826;28;19926;-73
2022/11/07 01:43:43;;;;;;;;;;;9.60;99.90;;;;;;5010498;28;19937;-74
2022/11/07 01:46:10;;;;;;;;;;;9.70;99.90;;;;;;4991962;28;20275;-74
2022/11/07 01:48:45;;;;;;;;;;;9.70;99.90;;;;;;5001403;28;19977;-74
2022/11/07 01:51:18;;;;;;;;;;;9.80;99.90;;;;;;4992014;28;19992;-74
2022/11/07 01:53:45;;;;;;;;;;;9.70;99.90;;;;;;5010377;28;19929;-75
2022/11/07 01:56:18;;;;;;;;;;;9.90;99.90;;;;;;4991946;28;20392;-74
2022/11/07 01:58:50;;;;;;;;;;;9.90;99.90;;;;;;4989778;28;19925;-75
2022/11/07 02:01:22;;;;;;;;;;;9.90;99.90;;;;;;4987823;28;19929;-75
2022/11/07 02:03:55;;;;;;;;;;;9.90;99.90;;;;;;5007066;28;19930;-74
2022/11/07 02:06:30;;;;;;;;;;;9.90;99.90;;;;;;4992181;28;20342;-74
2022/11/07 02:09:03;;;;;;;;;;;9.90;99.90;;;;;;4988988;28;19956;-74
2022/11/07 02:11:34;;;;;;;;;;;9.80;99.90;;;;;;4990569;28;19949;-75
2022/11/07 02:14:06;;;;;;;;;;;9.80;99.90;;;;;;4992376;28;19983;-75
2022/11/07 02:16:38;;;;;;;;;;;9.70;99.90;;;;;;4990942;28;19983;-75
2022/11/07 02:19:16;;;;;;;;;;;9.70;99.90;;;;;;4990109;28;19976;-74
2022/11/07 02:21:50;;;;;;;;;;;9.60;99.90;;;;;;4987057;28;20189;-75
2022/11/07 02:24:27;;;;;;;;;;;9.60;99.90;;;;;;5008713;28;20430;-73
2022/11/07 02:26:59;;;;;;;;;;;9.50;99.90;;;;;;4990548;28;19925;-74
2022/11/07 02:29:32;;;;;;;;;;;9.50;99.90;;;;;;5003479;28;20337;-73
2022/11/07 02:32:03;;;;;;;;;;;9.50;99.90;;;;;;4990764;28;19926;-74
2022/11/07 02:34:35;;;;;;;;;;;9.50;99.90;;;;;;4975494;28;19983;-73
2022/11/07 02:37:04;;;;;;;;;;;9.50;99.90;;;;;;5008353;28;19930;-73
2022/11/07 02:39:36;;;;;;;;;;;9.50;99.90;;;;;;4989738;28;19984;-74
2022/11/07 02:42:08;;;;;;;;;;;9.50;99.90;;;;;;4991698;28;19925;-74
2022/11/07 02:44:39;;;;;;;;;;;9.60;99.90;;;;;;4979285;28;19957;-73
2022/11/07 02:47:06;;;;;;;;;;;9.50;99.90;;;;;;4992761;28;19976;-74
2022/11/07 02:49:37;;;;;;;;;;;9.50;99.90;;;;;;4991008;28;19925;-74
2022/11/07 02:52:04;;;;;;;;;;;9.50;99.90;;;;;;4970905;28;20376;-74
2022/11/07 02:54:30;;;;;;;;;;;9.40;99.90;;;;;;4974084;28;19925;-74
2022/11/07 02:57:02;;;;;;;;;;;9.40;99.90;;;;;;5007872;28;19972;-73
2022/11/07 02:59:34;;;;;;;;;;;9.30;99.90;;;;;;4970381;28;19926;-73
2022/11/07 03:02:05;;;;;;;;;;;9.30;99.90;;;;;;4990424;28;19925;-73
2022/11/07 03:04:37;;;;;;;;;;;9.30;99.90;;;;;;4974739;28;19936;-74
2022/11/07 03:07:08;;;;;;;;;;;9.30;99.90;;;;;;4973186;28;19930;-73
2022/11/07 03:09:40;;;;;;;;;;;9.20;99.90;;;;;;4989598;28;19929;-73
2022/11/07 03:12:11;;;;;;;;;;;9.20;99.90;;;;;;4991458;28;19964;-74
2022/11/07 03:14:43;;;;;;;;;;;9.20;99.90;;;;;;4990280;28;19929;-76
2022/11/07 03:17:14;;;;;;;;;;;9.10;99.90;;;;;;4974050;28;19926;-76
2022/11/07 03:19:41;;;;;;;;;;;9.10;99.90;;;;;;4981764;28;19971;-74
2022/11/07 03:22:13;;;;;;;;;;;9.00;99.90;;;;;;4986323;28;20345;-73
2022/11/07 03:24:44;;;;;;;;;;;9.00;99.90;;;;;;4990183;28;19996;-74
2022/11/07 03:27:16;;;;;;;;;;;9.00;99.90;;;;;;5007365;28;20380;-74
2022/11/07 03:29:43;;;;;;;;;;;9.00;99.90;;;;;;5007931;28;20383;-74
2022/11/07 03:32:14;;;;;;;;;;;9.00;99.90;;;;;;4990243;28;19925;-73
2022/11/07 03:34:41;;;;;;;;;;;8.90;99.90;;;;;;4973491;28;19987;-74
2022/11/07 03:37:13;;;;;;;;;;;8.80;99.90;;;;;;5007099;28;19972;-74
2022/11/07 03:39:45;;;;;;;;;;;8.80;99.90;;;;;;4989825;28;19987;-73
2022/11/07 03:42:16;;;;;;;;;;;8.70;99.90;;;;;;4990384;28;20373;-74
2022/11/07 03:44:48;;;;;;;;;;;8.70;99.90;;;;;;4973425;28;19926;-74
2022/11/07 03:47:19;;;;;;;;;;;8.60;99.90;;;;;;4988993;28;19979;-73
2022/11/07 03:49:46;;;;;;;;;;;8.50;99.90;;;;;;4986689;28;20363;-74
2022/11/07 03:52:17;;;;;;;;;;;8.50;99.90;;;;;;4990060;28;19925;-74
2022/11/07 03:54:44;;;;;;;;;;;8.50;99.90;;;;;;4989577;28;20306;-74
2022/11/07 03:57:10;;;;;;;;;;;8.50;99.90;;;;;;4997952;28;20518;-73
2022/11/07 03:59:42;;;;;;;;;;;8.60;99.90;;;;;;4990669;28;19976;-74
2022/11/07 04:02:14;;;;;;;;;;;8.50;99.90;;;;;;4986836;28;20573;-75
2022/11/07 04:04:45;;;;;;;;;;;8.50;99.90;;;;;;4984915;28;19930;-73
2022/11/07 04:07:12;;;;;;;;;;;8.50;99.90;;;;;;4989960;28;19956;-73
2022/11/07 04:09:43;;;;;;;;;;;8.50;99.90;;;;;;4988983;28;19933;-73
2022/11/07 04:17:56;;;;;;;;;;;8.60;99.90;;;;;;5007435;28;19926;-74
2022/11/07 04:20:28;;;;;;;;;;;8.60;99.90;;;;;;4986148;28;19926;-74
2022/11/07 04:22:59;;;;;;;;;;;8.60;99.90;;;;;;4990159;28;20419;-74
2022/11/07 04:28:27;;;;;;;;;;;8.50;99.90;;;;;;4934511;28;19933;-74
2022/11/07 04:30:58;;;;;;;;;;;8.50;99.90;;;;;;4994566;28;19980;-73
2022/11/07 04:33:30;;;;;;;;;;;8.60;99.90;;;;;;4992219;28;19961;-73
2022/11/07 04:36:01;;;;;;;;;;;8.50;99.90;;;;;;4979013;28;19925;-73
2022/11/07 04:38:33;;;;;;;;;;;8.50;99.90;;;;;;4989034;28;19926;-74
2022/11/07 04:41:05;;;;;;;;;;;8.50;99.90;;;;;;4992236;28;20006;-75
2022/11/07 04:43:36;;;;;;;;;;;8.40;99.90;;;;;;4988578;28;19934;-74
2022/11/07 04:46:08;;;;;;;;;;;8.40;99.90;;;;;;4973946;28;19934;-73
2022/11/07 04:48:34;;;;;;;;;;;8.40;99.90;;;;;;5011524;28;19925;-74
2022/11/07 04:51:01;;;;;;;;;;;8.40;99.90;;;;;;5009498;28;20242;-74
2022/11/07 04:53:33;;;;;;;;;;;8.40;99.90;;;;;;4991901;28;19925;-73
2022/11/07 04:56:05;;;;;;;;;;;8.40;99.90;;;;;;4993484;28;19968;-74
2022/11/07 04:58:36;;;;;;;;;;;8.40;99.90;;;;;;4988772;28;19984;-74
2022/11/07 05:01:08;;;;;;;;;;;8.40;99.90;;;;;;4994611;28;20569;-75
2022/11/07 05:03:39;;;;;;;;;;;8.40;99.90;;;;;;4974958;28;19926;-76
2022/11/07 05:06:12;;;;;;;;;;;8.40;99.90;;;;;;4990898;28;19956;-74
2022/11/07 05:08:44;;;;;;;;;;;8.40;99.90;;;;;;4993555;28;19984;-74
2022/11/07 05:11:15;;;;;;;;;;;8.50;99.90;;;;;;5000931;28;19933;-74
2022/11/07 05:13:42;;;;;;;;;;;8.40;99.90;;;;;;4975044;28;19925;-74
2022/11/07 05:16:17;;;;;;;;;;;8.40;99.90;;;;;;4992722;28;20338;-73
2022/11/07 05:18:49;;;;;;;;;;;8.40;99.90;;;;;;4976121;28;19925;-73
2022/11/07 05:21:21;;;;;;;;;;;8.40;99.90;;;;;;4992543;28;19930;-73
2022/11/07 05:23:52;;;;;;;;;;;8.40;99.90;;;;;;5010182;28;20630;-73
2022/11/07 05:26:24;;;;;;;;;;;8.40;99.90;;;;;;5010806;28;20015;-73
2022/11/07 05:28:55;;;;;;;;;;;8.40;99.90;;;;;;4976974;28;19929;-73
2022/11/07 05:31:22;;;;;;;;;;;8.50;99.90;;;;;;4974622;28;19936;-74
2022/11/07 05:33:53;;;;;;;;;;;8.50;99.90;;;;;;4976555;28;20300;-74
2022/11/07 05:36:21;;;;;;;;;;;8.50;99.90;;;;;;5009664;28;19925;-73
2022/11/07 05:38:52;;;;;;;;;;;8.50;99.90;;;;;;5001301;28;20319;-75
2022/11/07 05:41:20;;;;;;;;;;;8.50;99.90;;;;;;4988924;28;19948;-73
2022/11/07 05:43:51;;;;;;;;;;;8.50;99.90;;;;;;5008673;28;20338;-74
2022/11/07 05:46:23;;;;;;;;;;;8.50;99.90;;;;;;5009366;28;19926;-73
2022/11/07 05:48:54;;;;;;;;;;;8.50;99.90;;;;;;4992085;28;19983;-73
2022/11/07 05:51:26;;;;;;;;;;;8.50;99.90;;;;;;4991168;28;20478;-73
2022/11/07 05:53:57;;;;;;;;;;;8.60;99.90;;;;;;5008255;28;19967;-76
2022/11/07 05:56:29;;;;;;;;;;;8.60;99.90;;;;;;4975551;28;19984;-75
2022/11/07 05:58:55;;;;;;;;;;;8.70;99.90;;;;;;4990361;28;19929;-73
2022/11/07 06:01:27;;;;;;;;;;;8.80;99.90;;;;;;4990317;28;20392;-74
2022/11/07 06:03:59;;;;;;;;;;;8.80;99.90;;;;;;4987902;28;19955;-74
2022/11/07 06:06:25;;;;;;;;;;;9.00;99.90;;;;;;4988906;28;19930;-74
2022/11/07 06:08:57;;;;;;;;;;;9.00;99.90;;;;;;4986214;28;19933;-74
2022/11/07 06:11:29;;;;;;;;;;;9.00;99.90;;;;;;4988083;28;19976;-74
2022/11/07 06:13:56;;;;;;;;;;;9.10;99.90;;;;;;4989856;28;20331;-74
2022/11/07 06:16:28;;;;;;;;;;;9.00;99.90;;;;;;4987934;28;19980;-74
2022/11/07 06:18:54;;;;;;;;;;;9.00;99.90;;;;;;4987506;28;19965;-74
2022/11/07 06:21:26;;;;;;;;;;;9.00;99.90;;;;;;4988971;28;19926;-73
2022/11/07 06:23:58;;;;;;;;;;;9.00;99.90;;;;;;4974447;28;19929;-74
2022/11/07 06:26:25;;;;;;;;;;;9.00;99.90;;;;;;4973323;28;19984;-73
2022/11/07 06:28:52;;;;;;;;;;;9.00;99.90;;;;;;4988342;28;20498;-74
2022/11/07 06:31:24;;;;;;;;;;;9.10;99.90;;;;;;5002661;28;19925;-75
2022/11/07 06:33:55;;;;;;;;;;;9.10;99.90;;;;;;4985931;28;19933;-74
2022/11/07 06:36:27;;;;;;;;;;;9.20;99.90;;;;;;4989691;28;20031;-73
2022/11/07 06:38:53;;;;;;;;;;;9.30;99.90;;;;;;4972496;28;20321;-73
2022/11/07 06:41:25;;;;;;;;;;;9.40;99.90;;;;;;4973629;28;19972;-76
2022/11/07 06:43:56;;;;;;;;;;;9.40;99.90;;;;;;4974419;28;19929;-73
2022/11/07 06:46:28;;;;;;;;;;;9.40;99.90;;;;;;5004049;28;20675;-74
2022/11/07 06:48:59;;;;;;;;;;;9.50;99.90;;;;;;5003796;28;19925;-73
2022/11/07 06:51:31;;;;;;;;;;;9.50;99.90;;;;;;4984301;28;19934;-74
2022/11/07 06:53:58;;;;;;;;;;;9.60;99.90;;;;;;4988780;28;19984;-74
2022/11/07 06:56:29;;;;;;;;;;;9.60;99.90;;;;;;4972514;28;19941;-75
2022/11/07 06:59:01;;;;;;;;;;;9.70;99.90;;;;;;4990716;28;19997;-74
2022/11/07 07:01:32;;;;;;;;;;;9.70;99.90;;;;;;5004163;28;19933;-74
2022/11/07 07:03:59;;;;;;;;;;;9.70;99.90;;;;;;4984093;28;20388;-74
2022/11/07 07:06:31;;;;;;;;;;;9.80;99.90;;;;;;4972381;28;20277;-75
2022/11/07 07:09:05;;;;;;;;;;;9.90;99.90;;;;;;4973940;28;19925;-75
2022/11/07 07:11:37;;;;;;;;;;;9.90;99.90;;;;;;4991186;28;19925;-75
2022/11/07 07:14:09;;;;;;;;;;;9.90;99.90;;;;;;4991094;28;20049;-74
2022/11/07 07:16:40;;;;;;;;;;;9.90;99.90;;;;;;4973531;28;19925;-75
2022/11/07 07:19:12;;;;;;;;;;;9.90;99.90;;;;;;5009161;28;19925;-74
2022/11/07 07:21:38;;;;;;;;;;;9.90;99.90;;;;;;5003211;28;19925;-74
2022/11/07 07:24:05;;;;;;;;;;;9.90;99.90;;;;;;4998035;28;19925;-74
2022/11/07 07:26:37;;;;;;;;;;;10.00;99.90;;;;;;4988041;28;19957;-72
2022/11/07 07:29:08;;;;;;;;;;;10.00;99.90;;;;;;4992095;28;20419;-73
2022/11/07 07:31:40;;;;;;;;;;;10.00;99.90;;;;;;4974836;28;19926;-74
2022/11/07 07:34:13;;;;;;;;;;;10.00;99.90;;;;;;4992454;28;20061;-74
2022/11/07 07:36:44;;;;;;;;;;;10.00;99.90;;;;;;4991551;28;19929;-71
2022/11/07 07:39:11;;;;;;;;;;;10.10;99.90;;;;;;4980454;28;19987;-72
2022/11/07 07:41:43;;;;;;;;;;;10.10;99.90;;;;;;4974854;28;19926;-72
2022/11/07 07:44:19;;;;;;;;;;;10.20;99.90;;;;;;4976133;28;19933;-74
2022/11/07 07:46:50;;;;;;;;;;;10.20;99.90;;;;;;4993506;28;20293;-73
2022/11/07 07:49:22;;;;;;;;;;;10.20;99.90;;;;;;4992360;28;19983;-73
2022/11/07 07:51:54;;;;;;;;;;;10.20;99.90;;;;;;5008922;28;19929;-75
2022/11/07 07:54:25;;;;;;;;;;;10.30;99.90;;;;;;4992036;28;19926;-75
2022/11/07 07:56:57;;;;;;;;;;;10.30;99.90;;;;;;5008424;28;19933;-72
2022/11/07 07:59:28;;;;;;;;;;;10.30;99.90;;;;;;4983063;28;19972;-72
2022/11/07 08:02:00;;;;;;;;;;;10.40;99.90;;;;;;4993992;28;19965;-72
2022/11/07 08:04:32;;;;;;;;;;;10.40;99.90;;;;;;4995987;28;20431;-73
2022/11/07 08:07:03;;;;;;;;;;;10.40;99.90;;;;;;5012592;28;19926;-72
2022/11/07 08:09:35;;;;;;;;;;;10.50;99.90;;;;;;5005492;28;20297;-73
2022/11/07 08:12:09;;;;;;;;;;;10.50;99.90;;;;;;5005205;28;19933;-73
2022/11/07 08:14:41;;;;;;;;;;;10.50;99.90;;;;;;4992782;28;20399;-73
2022/11/07 08:17:12;;;;;;;;;;;10.60;99.90;;;;;;4991206;28;19984;-72
2022/11/07 08:19:44;;;;;;;;;;;10.60;99.90;;;;;;5011304;28;19944;-73
2022/11/07 08:22:15;;;;;;;;;;;10.70;99.90;;;;;;4992607;28;19972;-74
2022/11/07 08:24:47;;;;;;;;;;;10.70;99.90;;;;;;4992167;28;19929;-72
2022/11/07 08:27:18;;;;;;;;;;;10.80;99.90;;;;;;4992997;28;19929;-72
2022/11/07 08:29:50;;;;;;;;;;;10.90;99.90;;;;;;4988592;28;19976;-74
2022/11/07 08:32:22;;;;;;;;;;;10.90;99.90;;;;;;5012438;28;19941;-74
2022/11/07 08:34:53;;;;;;;;;;;11.00;99.90;;;;;;5010554;28;19926;-72
2022/11/07 08:37:20;;;;;;;;;;;11.00;99.90;;;;;;4983738;28;19988;-75
2022/11/07 08:39:52;;;;;;;;;;;11.10;99.90;;;;;;4975955;28;19926;-73
2022/11/07 08:42:23;;;;;;;;;;;11.20;99.90;;;;;;4988166;28;19973;-72
2022/11/07 08:44:55;;;;;;;;;;;11.30;99.90;;;;;;4993295;28;20044;-74
2022/11/07 08:47:27;;;;;;;;;;;11.40;99.90;;;;;;4991783;28;21451;-74
2022/11/07 08:49:59;;;;;;;;;;;11.40;99.90;;;;;;4980637;28;20388;-74
2022/11/07 08:52:30;;;;;;;;;;;11.50;99.90;;;;;;5009429;28;19937;-72
2022/11/07 08:55:02;;;;;;;;;;;11.60;99.90;;;;;;5011787;28;19980;-74
2022/11/07 08:57:34;;;;;;;;;;;11.60;99.90;;;;;;5011116;28;19932;-74
2022/11/07 09:00:06;;;;;;;;;;;11.70;99.90;;;;;;4993478;28;19934;-75
2022/11/07 09:02:37;;;;;;;;;;;11.90;99.90;;;;;;5011217;28;20396;-73
2022/11/07 09:05:09;;;;;;;;;;;11.90;99.90;;;;;;5011467;28;20400;-73
2022/11/07 09:07:39;;;;;;;;;;;12.00;99.90;;;;;;4993286;28;20445;-72
2022/11/07 09:10:10;;;;;;;;;;;12.10;99.90;;;;;;4994309;28;19930;-71
2022/11/07 09:12:43;;;;;;;;;;;12.20;99.90;;;;;;5008052;28;19926;-72
2022/11/07 09:15:14;;;;;;;;;;;12.40;99.90;;;;;;5009723;28;19933;-73
2022/11/07 09:17:46;;;;;;;;;;;12.50;99.90;;;;;;4990834;28;19933;-73
2022/11/07 09:20:18;;;;;;;;;;;12.60;99.90;;;;;;4992896;28;19983;-73
2022/11/07 09:22:45;;;;;;;;;;;12.60;99.90;;;;;;4976033;28;19964;-73
2022/11/07 09:25:16;;;;;;;;;;;12.70;99.90;;;;;;4989863;28;19929;-73
2022/11/07 09:27:50;;;;;;;;;;;12.70;99.90;;;;;;5007653;28;20023;-75
2022/11/07 09:30:22;;;;;;;;;;;12.70;99.90;;;;;;4990274;28;20380;-74
2022/11/07 09:32:56;;;;;;;;;;;12.60;99.90;;;;;;5007483;28;20288;-73
2022/11/07 09:35:28;;;;;;;;;;;12.60;99.90;;;;;;4991872;28;20503;-74
2022/11/07 09:37:54;;;;;;;;;;;12.60;99.90;;;;;;4991953;28;19931;-75
2022/11/07 09:40:45;;;;;;;;;;;12.60;99.90;;;;;;4989831;28;19988;-75
2022/11/07 09:43:16;;;;;;;;;;;12.70;99.90;;;;;;4975839;28;19976;-73
2022/11/07 09:45:55;;;;;;;;;;;12.80;99.90;;;;;;4991665;28;19971;-75
2022/11/07 09:48:30;;;;;;;;;;;12.90;99.90;;;;;;4973325;28;20716;-74
2022/11/07 09:50:57;;;;;;;;;;;12.90;99.90;;;;;;4992520;28;19984;-74
2022/11/07 09:53:30;;;;;;;;;;;12.90;99.90;;;;;;4986994;28;19974;-74
2022/11/07 09:56:03;;;;;;;;;;;12.90;99.90;;;;;;4987474;28;19925;-72
2022/11/07 09:58:38;;;;;;;;;;;13.10;99.90;;;;;;4987283;28;19982;-74
2022/11/07 10:01:11;;;;;;;;;;;13.20;99.90;;;;;;4989908;28;19925;-74
2022/11/07 10:03:43;;;;;;;;;;;13.30;99.90;;;;;;4985763;28;19926;-74
2022/11/07 10:06:18;;;;;;;;;;;13.30;99.90;;;;;;4982370;28;19995;-73
2022/11/07 10:08:52;;;;;;;;;;;13.30;99.90;;;;;;5008595;28;19956;-74
2022/11/07 10:11:33;;;;;;;;;;;13.20;99.90;;;;;;4990239;28;19929;-73
2022/11/07 10:14:10;;;;;;;;;;;13.30;99.90;;;;;;4966362;28;20269;-73
2022/11/07 10:16:51;;;;;;;;;;;13.30;99.90;;;;;;4992147;28;19926;-73
2022/11/07 10:19:46;;;;;;;;;;;13.20;99.90;;;;;;5007596;28;19925;-73
2022/11/07 10:22:27;;;;;;;;;;;13.20;99.90;;;;;;5007365;28;19925;-74
2022/11/07 10:24:59;;;;;;;;;;;13.20;99.90;;;;;;4989549;28;20303;-74
2022/11/07 10:27:30;;;;;;;;;;;13.20;99.90;;;;;;4990851;28;19933;-73
2022/11/07 10:30:13;;;;;;;;;;;13.30;99.90;;;;;;4988137;28;19926;-74
2022/11/07 10:32:59;;;;;;;;;;;13.30;99.90;;;;;;5005995;28;19987;-74
2022/11/07 10:35:32;;;;;;;;;;;13.30;99.90;;;;;;4999316;28;19933;-74
2022/11/07 10:38:16;;;;;;;;;;;13.20;99.90;;;;;;5006676;28;19925;-74
2022/11/07 10:40:49;;;;;;;;;;;13.10;99.90;;;;;;4984641;28;19955;-73
2022/11/07 10:43:35;;;;;;;;;;;13.10;99.90;;;;;;5000719;28;20197;-73
2022/11/07 10:46:12;;;;;;;;;;;13.10;99.90;;;;;;5008425;28;19934;-73
2022/11/07 10:48:55;;;;;;;;;;;13.10;99.90;;;;;;4985630;28;20535;-73
2022/11/07 10:51:33;;;;;;;;;;;13.20;99.90;;;;;;4991952;28;19926;-75
2022/11/07 10:54:05;;;;;;;;;;;13.30;99.90;;;;;;5005511;28;19926;-72
2022/11/07 10:56:52;;;;;;;;;;;13.30;99.90;;;;;;4974979;28;19934;-72
2022/11/07 10:59:25;;;;;;;;;;;13.30;99.90;;;;;;4992501;28;19988;-74
2022/11/07 11:01:57;;;;;;;;;;;13.30;99.90;;;;;;4976627;28;19925;-74
2022/11/07 11:04:30;;;;;;;;;;;13.30;99.90;;;;;;4991909;28;19929;-73
2022/11/07 11:07:10;;;;;;;;;;;13.20;99.90;;;;;;5006530;28;19992;-73
2022/11/07 11:10:01;;;;;;;;;;;13.30;99.90;;;;;;4986952;28;19953;-74
2022/11/07 11:12:30;;;;;;;;;;;13.20;99.90;;;;;;4983981;28;19933;-73
2022/11/07 11:15:16;;;;;;;;;;;13.20;99.90;;;;;;4972705;28;19956;-73
2022/11/07 11:17:59;;;;;;;;;;;13.30;99.90;;;;;;4987761;28;19933;-74
2022/11/07 11:20:30;;;;;;;;;;;13.50;99.90;;;;;;4986542;28;19926;-74
2022/11/07 11:22:58;;;;;;;;;;;13.50;99.90;;;;;;4974231;28;20276;-74
2022/11/07 11:25:30;;;;;;;;;;;13.70;99.90;;;;;;4989809;28;19968;-72
2022/11/07 11:28:00;;;;;;;;;;;13.70;99.90;;;;;;4989006;28;19925;-73
2022/11/07 11:30:34;;;;;;;;;;;13.60;99.90;;;;;;4982722;28;19938;-74
2022/11/07 11:33:10;;;;;;;;;;;13.60;99.90;;;;;;5005538;28;20408;-75
2022/11/07 11:35:44;;;;;;;;;;;13.60;99.90;;;;;;4987809;28;20293;-73
2022/11/07 11:38:18;;;;;;;;;;;13.70;99.90;;;;;;4976528;28;20347;-72
2022/11/07 11:40:54;;;;;;;;;;;13.70;99.90;;;;;;4989962;28;19932;-74
2022/11/07 11:43:25;;;;;;;;;;;13.80;99.90;;;;;;4989031;28;20347;-74
2022/11/07 11:45:52;;;;;;;;;;;13.80;99.90;;;;;;4968959;28;19934;-74
2022/11/07 11:48:24;;;;;;;;;;;13.80;99.90;;;;;;4973712;28;19925;-73
2022/11/07 11:50:58;;;;;;;;;;;13.80;99.90;;;;;;4990130;28;19987;-74
2022/11/07 11:53:30;;;;;;;;;;;13.80;99.90;;;;;;4994265;28;20301;-74
2022/11/07 11:56:17;;;;;;;;;;;13.70;99.90;;;;;;4976906;28;19967;-74
2022/11/07 11:58:56;;;;;;;;;;;13.70;99.90;;;;;;4954532;28;19937;-75
2022/11/07 12:02:06;;;;;;;;;;;13.70;99.90;;;;;;5011584;28;20013;-73
2022/11/07 12:05:03;;;;;;;;;;;13.80;99.90;;;;;;4939092;29;20282;-75
2022/11/07 12:07:36;;;;;;;;;;;13.80;99.90;;;;;;4917051;29;19930;-77
2022/11/07 12:10:13;;;;;;;;;;;13.70;99.90;;;;;;4996580;28;19936;-74
2022/11/07 12:12:53;;;;;;;;;;;13.70;99.90;;;;;;5011630;28;19981;-76
2022/11/07 12:15:44;;;;;;;;;;;13.70;99.90;;;;;;4991865;28;19984;-74
2022/11/07 12:18:16;;;;;;;;;;;13.70;99.90;;;;;;4975440;28;19933;-73
2022/11/07 12:21:12;;;;;;;;;;;13.80;99.90;;;;;;4992824;28;19979;-75
2022/11/07 12:23:45;;;;;;;;;;;13.90;99.90;;;;;;4909087;28;19930;-74
2022/11/07 12:26:27;;;;;;;;;;;13.90;99.90;;;;;;4976371;28;20289;-74
2022/11/07 12:29:06;;;;;;;;;;;13.80;99.90;;;;;;5009897;28;20458;-75
2022/11/07 12:31:46;;;;;;;;;;;13.80;99.90;;;;;;4974266;28;19981;-76
2022/11/07 12:34:32;;;;;;;;;;;13.80;99.90;;;;;;4989827;28;20344;-74
2022/11/07 12:37:15;;;;;;;;;;;13.70;99.90;;;;;;4977545;28;19937;-73
2022/11/07 12:39:57;;;;;;;;;;;13.70;99.90;;;;;;4992300;28;19938;-75
2022/11/07 12:42:47;;;;;;;;;;;13.70;99.90;;;;;;5009381;28;20383;-75
2022/11/07 12:45:33;;;;;;;;;;;13.60;99.90;;;;;;4984996;28;19930;-74
2022/11/07 12:48:32;;;;;;;;;;;13.60;99.90;;;;;;5005399;28;19999;-74
2022/11/07 12:51:09;;;;;;;;;;;13.50;99.90;;;;;;4978083;28;19926;-75
2022/11/07 12:53:54;;;;;;;;;;;13.50;99.90;;;;;;4989726;28;19980;-74
2022/11/07 12:56:33;;;;;;;;;;;13.50;99.90;;;;;;5006357;28;19949;-73
2022/11/07 12:59:11;;;;;;;;;;;13.60;99.90;;;;;;4974936;28;19925;-74
2022/11/07 13:02:00;;;;;;;;;;;13.60;99.90;;;;;;4975521;28;19975;-74
2022/11/07 13:04:33;;;;;;;;;;;13.60;99.90;;;;;;5005697;28;19929;-74
2022/11/07 13:07:11;;;;;;;;;;;13.60;99.90;;;;;;5004676;28;20547;-75
2022/11/07 13:09:58;;;;;;;;;;;13.60;99.90;;;;;;4990306;28;20454;-74
2022/11/07 13:12:36;;;;;;;;;;;13.60;99.90;;;;;;5007899;28;19929;-73
2022/11/07 13:15:09;;;;;;;;;;;13.60;99.90;;;;;;5004888;28;19979;-74
2022/11/07 13:17:40;;;;;;;;;;;13.70;99.90;;;;;;4972830;28;20450;-74
2022/11/07 13:20:24;;;;;;;;;;;13.70;99.90;;;;;;4988184;28;19934;-76
2022/11/07 13:22:52;;;;;;;;;;;13.70;99.90;;;;;;4990197;28;20470;-74
2022/11/07 13:25:28;;;;;;;;;;;13.80;99.90;;;;;;4990532;28;19925;-76
2022/11/07 13:27:55;;;;;;;;;;;13.70;99.90;;;;;;4985532;28;19976;-74
2022/11/07 13:30:29;;;;;;;;;;;13.70;99.90;;;;;;4985563;28;19930;-74
2022/11/07 13:33:02;;;;;;;;;;;13.70;99.90;;;;;;4991388;28;20019;-75
2022/11/07 13:35:37;;;;;;;;;;;13.80;99.90;;;;;;4989529;28;19986;-74
2022/11/07 13:38:15;;;;;;;;;;;13.80;99.90;;;;;;4990376;28;20347;-75
2022/11/07 13:40:52;;;;;;;;;;;13.70;99.90;;;;;;4975399;28;19937;-75
2022/11/07 13:43:44;;;;;;;;;;;13.80;99.90;;;;;;4987446;28;19984;-73
2022/11/07 13:46:16;;;;;;;;;;;13.70;99.90;;;;;;4990163;28;19932;-74
2022/11/07 13:48:50;;;;;;;;;;;13.80;99.90;;;;;;4989383;28;20308;-74
2022/11/07 13:51:23;;;;;;;;;;;13.80;99.90;;;;;;4990863;28;19933;-75
2022/11/07 13:53:57;;;;;;;;;;;13.80;99.90;;;;;;4988960;28;19956;-75
2022/11/07 13:56:48;;;;;;;;;;;13.80;99.90;;;;;;5007225;28;19926;-75
2022/11/07 13:59:38;;;;;;;;;;;13.80;99.90;;;;;;5003604;28;20323;-73
2022/11/07 14:02:17;;;;;;;;;;;13.80;99.90;;;;;;5005020;28;19937;-75
2022/11/07 14:04:50;;;;;;;;;;;13.90;99.90;;;;;;4990032;28;19925;-74
2022/11/07 14:07:23;;;;;;;;;;;13.80;99.90;;;;;;5004779;28;19933;-74
2022/11/07 14:09:56;;;;;;;;;;;13.80;99.90;;;;;;5007660;28;19995;-74
2022/11/07 14:12:23;;;;;;;;;;;13.80;99.90;;;;;;4990494;28;19930;-74
2022/11/07 14:14:52;;;;;;;;;;;13.80;99.90;;;;;;4990109;28;19926;-75
2022/11/07 14:17:29;;;;;;;;;;;13.70;99.90;;;;;;4970422;28;19944;-74
2022/11/07 14:20:14;;;;;;;;;;;13.70;99.90;;;;;;4986085;28;19980;-73
2022/11/07 14:22:47;;;;;;;;;;;13.70;99.90;;;;;;5007259;28;19941;-74
2022/11/07 14:25:29;;;;;;;;;;;13.70;99.90;;;;;;4988249;28;19930;-74
2022/11/07 14:27:57;;;;;;;;;;;13.60;99.90;;;;;;4973532;28;19930;-75
2022/11/07 14:30:29;;;;;;;;;;;13.60;99.90;;;;;;4973120;28;19999;-73
2022/11/07 14:32:57;;;;;;;;;;;13.50;99.90;;;;;;4985813;28;19925;-75
2022/11/07 14:35:30;;;;;;;;;;;13.50;99.90;;;;;;4972601;28;19975;-75
2022/11/07 14:38:09;;;;;;;;;;;13.50;99.90;;;;;;4988215;28;19972;-75
2022/11/07 14:40:41;;;;;;;;;;;13.40;99.90;;;;;;5001377;28;19937;-75
2022/11/07 14:43:14;;;;;;;;;;;13.30;99.90;;;;;;4986891;28;19976;-75
2022/11/07 14:45:42;;;;;;;;;;;13.20;99.90;;;;;;4986544;28;20011;-73
2022/11/07 14:48:15;;;;;;;;;;;13.20;99.90;;;;;;4987297;28;19929;-74
2022/11/07 14:50:47;;;;;;;;;;;13.20;99.90;;;;;;4988739;28;19933;-73
2022/11/07 14:53:22;;;;;;;;;;;13.10;99.90;;;;;;4990387;28;19972;-73
2022/11/07 14:55:55;;;;;;;;;;;13.10;99.90;;;;;;5004973;28;19987;-76
2022/11/07 14:58:29;;;;;;;;;;;13.10;99.90;;;;;;5001049;28;20419;-73
2022/11/07 15:01:04;;;;;;;;;;;13.00;99.90;;;;;;5004337;28;19930;-73
2022/11/07 15:03:48;;;;;;;;;;;13.00;99.90;;;;;;4988812;28;20348;-74
2022/11/07 15:06:22;;;;;;;;;;;12.90;99.90;;;;;;5001681;28;19926;-73
2022/11/07 15:08:54;;;;;;;;;;;12.80;99.90;;;;;;4988229;28;19925;-75
2022/11/07 15:11:30;;;;;;;;;;;12.80;99.90;;;;;;5002581;28;19983;-74